createdAt,value
2023-05-06T00:01:15.450Z,100692.72
2023-05-06T00:03:44.653Z,100694.06
2023-05-06T00:06:11.679Z,100690.81
2023-05-06T00:08:38.264Z,100686.00
2023-05-06T00:11:04.885Z,100676.75
2023-05-06T00:13:31.510Z,100674.25
2023-05-06T00:15:58.185Z,100661.34
2023-05-06T00:18:24.904Z,100657.72
2023-05-06T00:20:51.506Z,100673.59
2023-05-06T00:23:18.039Z,100670.88
2023-05-06T00:25:44.672Z,100657.69
2023-05-06T00:28:13.562Z,100657.25
2023-05-06T00:30:40.138Z,100652.75
2023-05-06T00:33:07.545Z,100642.91
2023-05-06T00:35:37.063Z,100646.97
2023-05-06T00:38:11.723Z,100654.78
2023-05-06T00:40:38.507Z,100661.78
2023-05-06T00:43:05.586Z,100666.66
2023-05-06T00:45:32.812Z,100665.88
2023-05-06T00:47:59.825Z,100660.06
2023-05-06T00:50:28.435Z,100657.53
2023-05-06T00:52:56.821Z,100670.25
2023-05-06T00:55:25.682Z,100670.84
2023-05-06T00:57:52.692Z,100684.75
2023-05-06T01:00:19.754Z,100704.16
2023-05-06T01:02:49.497Z,100722.09
2023-05-06T01:05:17.651Z,100726.91
2023-05-06T01:07:44.208Z,100727.72
2023-05-06T01:10:23.488Z,100723.75
2023-05-06T01:13:11.096Z,100725.22
2023-05-06T01:15:41.809Z,100721.03
2023-05-06T01:18:10.756Z,100726.16
2023-05-06T01:20:38.650Z,100726.97
2023-05-06T01:23:13.127Z,100721.34
2023-05-06T01:25:42.812Z,100715.13
2023-05-06T01:28:13.539Z,100713.13
2023-05-06T01:31:03.865Z,100716.88
2023-05-06T01:33:30.470Z,100721.47
2023-05-06T01:36:15.824Z,100723.91
2023-05-06T01:38:47.663Z,100724.94
2023-05-06T01:41:17.242Z,100727.69
2023-05-06T01:43:45.030Z,100721.13
2023-05-06T01:46:13.717Z,100728.19
2023-05-06T01:48:41.302Z,100714.00
2023-05-06T01:51:07.962Z,100724.66
2023-05-06T01:53:34.557Z,100732.31
2023-05-06T01:56:01.234Z,100720.88
2023-05-06T01:58:27.770Z,100724.72
2023-05-06T02:00:54.364Z,100727.63
2023-05-06T02:03:21.458Z,100730.50
2023-05-06T02:05:48.562Z,100730.94
2023-05-06T02:08:15.295Z,100727.94
2023-05-06T02:10:46.673Z,100740.91
2023-05-06T02:13:13.383Z,100733.59
2023-05-06T02:15:40.025Z,100729.78
2023-05-06T02:18:09.685Z,100727.22
2023-05-06T02:20:41.646Z,100732.94
2023-05-06T02:23:14.138Z,100717.59
2023-05-06T02:25:40.687Z,100714.13
2023-05-06T02:28:07.249Z,100713.97
2023-05-06T02:30:34.654Z,100709.47
2023-05-06T02:33:01.315Z,100713.25
2023-05-06T02:35:27.962Z,100708.56
2023-05-06T02:37:57.311Z,100705.25
2023-05-06T02:40:23.950Z,100707.69
2023-05-06T02:42:50.541Z,100714.22
2023-05-06T02:45:17.311Z,100712.19
2023-05-06T02:47:44.002Z,100705.16
2023-05-06T02:50:10.778Z,100717.03
2023-05-06T02:52:37.346Z,100708.41
2023-05-06T02:55:05.726Z,100706.53
2023-05-06T02:57:32.365Z,100709.06
2023-05-06T03:00:01.345Z,100711.13
2023-05-06T03:02:27.921Z,100717.75
2023-05-06T03:04:55.236Z,100713.16
2023-05-06T03:07:27.928Z,100714.63
2023-05-06T03:09:54.666Z,100716.19
2023-05-06T03:12:21.766Z,100707.91
2023-05-06T03:14:48.625Z,100711.72
2023-05-06T03:17:15.269Z,100708.88
2023-05-06T03:19:42.019Z,100712.28
2023-05-06T03:22:11.268Z,100708.97
2023-05-06T03:24:42.151Z,100702.38
2023-05-06T03:27:08.784Z,100701.94
2023-05-06T03:29:35.322Z,100709.16
2023-05-06T03:32:04.077Z,100706.25
2023-05-06T03:34:34.433Z,100705.25
2023-05-06T03:37:01.201Z,100711.66
2023-05-06T03:39:31.793Z,100707.56
2023-05-06T03:42:00.218Z,100701.53
2023-05-06T03:44:27.066Z,100698.41
2023-05-06T03:46:53.767Z,100700.13
2023-05-06T03:49:20.839Z,100707.09
2023-05-06T03:51:48.587Z,100704.28
2023-05-06T03:54:16.829Z,100707.88
2023-05-06T03:56:43.481Z,100704.56
2023-05-06T03:59:10.516Z,100707.84
2023-05-06T04:01:38.813Z,100709.44
2023-05-06T04:04:07.755Z,100703.53
2023-05-06T04:06:34.550Z,100708.41
2023-05-06T04:09:01.095Z,100716.41
2023-05-06T04:11:29.793Z,100706.69
2023-05-06T04:13:57.950Z,100705.78
2023-05-06T04:16:25.103Z,100715.56
2023-05-06T04:18:51.847Z,100714.25
2023-05-06T04:21:18.926Z,100715.47
2023-05-06T04:23:52.381Z,100714.88
2023-05-06T04:26:23.361Z,100722.34
2023-05-06T04:28:50.013Z,100719.06
2023-05-06T04:31:17.271Z,100716.66
2023-05-06T04:33:46.395Z,100719.75
2023-05-06T04:36:19.946Z,100733.84
2023-05-06T04:39:08.812Z,100723.16
2023-05-06T04:41:36.581Z,100729.50
2023-05-06T04:44:03.752Z,100722.16
2023-05-06T04:46:30.787Z,100721.34
2023-05-06T04:49:00.577Z,100729.50
2023-05-06T04:51:27.221Z,100732.22
2023-05-06T04:53:54.193Z,100729.44
2023-05-06T04:56:21.350Z,100729.22
2023-05-06T04:58:49.219Z,100729.78
2023-05-06T05:01:16.883Z,100729.44
2023-05-06T05:03:44.156Z,100736.25
2023-05-06T05:06:11.530Z,100737.97
2023-05-06T05:08:38.193Z,100734.84
2023-05-06T05:11:07.945Z,100738.69
2023-05-06T05:13:35.109Z,100739.66
2023-05-06T05:16:02.788Z,100741.25
2023-05-06T05:18:32.069Z,100746.50
2023-05-06T05:21:06.963Z,100746.91
2023-05-06T05:23:35.813Z,100740.69
2023-05-06T05:26:03.227Z,100750.03
2023-05-06T05:28:29.958Z,100758.31
2023-05-06T05:31:05.440Z,100748.88
2023-05-06T05:33:38.294Z,100755.31
2023-05-06T05:36:08.484Z,100763.78
2023-05-06T05:38:36.348Z,100759.16
2023-05-06T05:41:03.812Z,100772.53
2023-05-06T05:43:31.420Z,100768.50
2023-05-06T05:45:59.881Z,100759.63
2023-05-06T05:48:26.515Z,100762.38
2023-05-06T05:50:53.779Z,100760.22
2023-05-06T05:53:20.946Z,100762.19
2023-05-06T05:55:47.518Z,100767.38
2023-05-06T05:58:14.720Z,100770.97
2023-05-06T06:00:45.068Z,100769.25
2023-05-06T06:03:17.561Z,100772.38
2023-05-06T06:05:44.398Z,100774.31
2023-05-06T06:08:12.801Z,100780.41
2023-05-06T06:10:39.971Z,100786.28
2023-05-06T06:13:13.322Z,100790.31
2023-05-06T06:15:40.657Z,100784.72
2023-05-06T06:18:08.804Z,100782.78
2023-05-06T06:20:36.772Z,100777.91
2023-05-06T06:23:03.344Z,100790.53
2023-05-06T06:25:30.117Z,100791.03
2023-05-06T06:27:56.828Z,100794.63
2023-05-06T06:30:24.215Z,100797.34
2023-05-06T06:32:51.745Z,100803.22
2023-05-06T06:35:19.975Z,100804.28
2023-05-06T06:37:46.777Z,100808.25
2023-05-06T06:40:13.587Z,100807.75
2023-05-06T06:42:40.144Z,100818.00
2023-05-06T06:45:17.691Z,100819.25
2023-05-06T06:47:44.385Z,100815.66
2023-05-06T06:50:11.455Z,100817.69
2023-05-06T06:52:38.281Z,100813.91
2023-05-06T06:55:05.009Z,100814.81
2023-05-06T06:57:31.602Z,100821.94
2023-05-06T06:59:58.126Z,100816.41
2023-05-06T07:02:24.905Z,100817.88
2023-05-06T07:04:51.414Z,100806.06
2023-05-06T07:07:18.040Z,100812.28
2023-05-06T07:09:44.650Z,100811.66
2023-05-06T07:12:11.321Z,100825.47
2023-05-06T07:14:38.630Z,100816.97
2023-05-06T07:17:05.383Z,100820.84
2023-05-06T07:19:31.944Z,100814.00
2023-05-06T07:21:58.586Z,100816.78
2023-05-06T07:24:25.115Z,100815.06
2023-05-06T07:26:51.772Z,100817.91
2023-05-06T07:29:18.332Z,100828.50
2023-05-06T07:31:44.953Z,100825.41
2023-05-06T07:34:11.536Z,100839.56
2023-05-06T07:36:41.043Z,100841.56
2023-05-06T07:39:07.879Z,100838.94
2023-05-06T07:41:34.540Z,100836.69
2023-05-06T07:44:01.280Z,100835.94
2023-05-06T07:46:30.154Z,100841.41
2023-05-06T07:48:56.731Z,100846.41
2023-05-06T07:51:23.363Z,100859.88
2023-05-06T07:53:49.927Z,100846.53
2023-05-06T07:56:17.466Z,100849.06
2023-05-06T07:58:44.003Z,100861.25
2023-05-06T08:01:10.627Z,100851.91
2023-05-06T08:03:37.303Z,100861.13
2023-05-06T08:06:04.118Z,100869.81
2023-05-06T08:08:30.873Z,100870.47
2023-05-06T08:10:58.077Z,100863.75
2023-05-06T08:13:28.150Z,100868.75
2023-05-06T08:15:56.331Z,100866.88
2023-05-06T08:18:23.426Z,100874.16
2023-05-06T08:20:51.319Z,100873.22
2023-05-06T08:23:17.932Z,100876.06
2023-05-06T08:25:44.512Z,100869.84
2023-05-06T08:28:11.118Z,100875.91
2023-05-06T08:30:37.765Z,100876.94
2023-05-06T08:33:04.452Z,100868.94
2023-05-06T08:35:31.310Z,100876.78
2023-05-06T08:37:57.837Z,100875.91
2023-05-06T08:40:27.024Z,100876.59
2023-05-06T08:42:55.349Z,100866.06
2023-05-06T08:45:22.753Z,100876.84
2023-05-06T08:47:49.413Z,100882.59
2023-05-06T08:50:16.584Z,100889.72
2023-05-06T08:52:43.612Z,100884.06
2023-05-06T08:55:10.554Z,100882.50
2023-05-06T08:57:37.657Z,100891.44
2023-05-06T09:00:05.102Z,100887.75
2023-05-06T09:02:31.965Z,100889.38
2023-05-06T09:04:59.676Z,100886.44
2023-05-06T09:07:26.389Z,100891.78
2023-05-06T09:09:52.932Z,100899.19
2023-05-06T09:12:19.593Z,100894.72
2023-05-06T09:14:49.324Z,100893.13
2023-05-06T09:17:23.889Z,100896.38
2023-05-06T09:19:54.106Z,100900.13
2023-05-06T09:22:26.938Z,100899.66
2023-05-06T09:24:57.000Z,100905.53
2023-05-06T09:27:28.352Z,100898.59
2023-05-06T09:30:07.587Z,100901.88
2023-05-06T09:32:36.708Z,100897.44
2023-05-06T09:35:05.265Z,100904.03
2023-05-06T09:37:31.896Z,100897.03
2023-05-06T09:40:01.786Z,100908.03
2023-05-06T09:42:29.256Z,100907.03
2023-05-06T09:45:01.883Z,100900.22
2023-05-06T09:47:34.096Z,100911.00
2023-05-06T09:50:03.778Z,100907.13
2023-05-06T09:52:30.931Z,100910.47
2023-05-06T09:55:00.854Z,100909.66
2023-05-06T09:57:29.108Z,100926.16
2023-05-06T09:59:56.481Z,100931.63
2023-05-06T10:02:23.606Z,100937.47
2023-05-06T10:04:54.517Z,100932.84
2023-05-06T10:07:25.677Z,100936.44
2023-05-06T10:09:57.092Z,100935.25
2023-05-06T10:12:24.242Z,100929.44
2023-05-06T10:14:50.879Z,100926.84
2023-05-06T10:17:18.948Z,100926.63
2023-05-06T10:19:46.247Z,100930.72
2023-05-06T10:22:12.802Z,100932.53
2023-05-06T10:25:08.930Z,100925.81
2023-05-06T10:27:39.680Z,100934.00
2023-05-06T10:30:08.111Z,100930.81
2023-05-06T10:32:35.032Z,100930.06
2023-05-06T10:35:12.386Z,100929.19
2023-05-06T10:37:40.673Z,100927.88
2023-05-06T10:40:10.034Z,100924.59
2023-05-06T10:42:39.374Z,100920.41
2023-05-06T10:45:06.417Z,100918.84
2023-05-06T10:48:03.670Z,100916.59
2023-05-06T10:50:30.314Z,100915.13
2023-05-06T10:52:59.335Z,100915.75
2023-05-06T10:55:29.095Z,100907.13
2023-05-06T10:58:01.438Z,100908.91
2023-05-06T11:00:34.499Z,100898.88
2023-05-06T11:03:02.157Z,100898.44
2023-05-06T11:05:28.944Z,100908.41
2023-05-06T11:08:16.386Z,100898.19
2023-05-06T11:10:43.066Z,100906.38
2023-05-06T11:13:19.148Z,100901.91
2023-05-06T11:15:46.458Z,100904.63
2023-05-06T11:18:28.180Z,100905.69
2023-05-06T11:21:03.788Z,100922.25
2023-05-06T11:23:43.050Z,100922.00
2023-05-06T11:26:10.216Z,100916.78
2023-05-06T11:28:38.753Z,100905.81
2023-05-06T11:31:05.775Z,100918.25
2023-05-06T11:33:33.533Z,100919.75
2023-05-06T11:36:00.698Z,100923.88
2023-05-06T11:38:27.469Z,100914.34
2023-05-06T11:40:54.175Z,100914.47
2023-05-06T11:43:20.705Z,100916.38
2023-05-06T11:45:51.100Z,100916.34
2023-05-06T11:48:18.241Z,100921.88
2023-05-06T11:50:48.281Z,100927.00
2023-05-06T11:53:17.062Z,100927.78
2023-05-06T11:55:44.222Z,100916.63
2023-05-06T11:58:19.724Z,100929.66
2023-05-06T12:00:49.702Z,100923.84
2023-05-06T12:03:18.291Z,100929.34
2023-05-06T12:05:45.504Z,100936.38
2023-05-06T12:08:23.686Z,100940.63
2023-05-06T12:10:54.593Z,100934.16
2023-05-06T12:13:21.556Z,100941.47
2023-05-06T12:15:49.919Z,100946.50
2023-05-06T12:18:19.630Z,100943.38
2023-05-06T12:20:47.346Z,100936.75
2023-05-06T12:23:15.229Z,100941.41
2023-05-06T12:25:42.863Z,100938.94
2023-05-06T12:28:15.862Z,100939.47
2023-05-06T12:30:42.905Z,100950.88
2023-05-06T12:33:09.982Z,100945.00
2023-05-06T12:35:36.943Z,100945.22
2023-05-06T12:38:10.908Z,100947.41
2023-05-06T12:40:37.737Z,100938.34
2023-05-06T12:43:04.402Z,100946.38
2023-05-06T12:45:31.181Z,100945.97
2023-05-06T12:48:01.309Z,100952.06
2023-05-06T12:50:30.957Z,100944.97
2023-05-06T12:52:57.719Z,100959.50
2023-05-06T12:55:25.845Z,100963.56
2023-05-06T12:57:57.195Z,100960.72
2023-05-06T13:00:24.670Z,100961.25
2023-05-06T13:02:58.480Z,100960.50
2023-05-06T13:05:25.221Z,100957.94
2023-05-06T13:07:51.918Z,100959.56
2023-05-06T13:10:18.535Z,100953.06
2023-05-06T13:12:45.142Z,100951.44
2023-05-06T13:15:11.804Z,100947.72
2023-05-06T13:17:38.463Z,100943.56
2023-05-06T13:20:05.481Z,100946.69
2023-05-06T13:22:37.732Z,100947.25
2023-05-06T13:25:13.925Z,100950.91
2023-05-06T13:27:40.506Z,100948.97
2023-05-06T13:30:11.144Z,100949.31
2023-05-06T13:32:43.346Z,100952.28
2023-05-06T13:35:10.395Z,100941.91
2023-05-06T13:37:37.177Z,100941.56
2023-05-06T13:40:12.583Z,100937.53
2023-05-06T13:42:39.482Z,100939.22
2023-05-06T13:45:06.350Z,100949.97
2023-05-06T13:47:33.236Z,100946.97
2023-05-06T13:49:59.875Z,100951.97
2023-05-06T13:52:26.503Z,100949.66
2023-05-06T13:54:59.306Z,100950.81
2023-05-06T13:57:28.781Z,100956.34
2023-05-06T13:59:55.424Z,100963.81
2023-05-06T14:02:22.091Z,100964.28
2023-05-06T14:04:48.715Z,100965.53
2023-05-06T14:07:15.369Z,100962.06
2023-05-06T14:09:41.912Z,100961.56
2023-05-06T14:12:08.574Z,100962.50
2023-05-06T14:14:35.149Z,100961.44
2023-05-06T14:17:04.080Z,100962.00
2023-05-06T14:19:30.611Z,100959.31
2023-05-06T14:21:57.207Z,100962.56
2023-05-06T14:24:23.742Z,100958.22
2023-05-06T14:26:50.353Z,100959.06
2023-05-06T14:29:16.904Z,100967.28
2023-05-06T14:31:43.759Z,100975.50
2023-05-06T14:34:10.344Z,100970.63
2023-05-06T14:36:37.005Z,100972.72
2023-05-06T14:39:03.577Z,100979.13
2023-05-06T14:41:31.297Z,100975.13
2023-05-06T14:44:00.908Z,100980.13
2023-05-06T14:46:29.371Z,100986.09
2023-05-06T14:48:58.998Z,100975.69
2023-05-06T14:51:25.738Z,100973.78
2023-05-06T14:53:54.576Z,100977.25
2023-05-06T14:56:23.386Z,100981.19
2023-05-06T14:58:49.933Z,100980.31
2023-05-06T15:01:16.560Z,100985.13
2023-05-06T15:03:43.175Z,100988.25
2023-05-06T15:06:10.005Z,100989.03
2023-05-06T15:08:36.756Z,100971.84
2023-05-06T15:11:05.711Z,100982.91
2023-05-06T15:13:32.213Z,100982.53
2023-05-06T15:15:58.858Z,100979.91
2023-05-06T15:18:25.519Z,100973.16
2023-05-06T15:20:54.980Z,100987.84
2023-05-06T15:23:21.649Z,100985.88
2023-05-06T15:25:50.515Z,100998.25
2023-05-06T15:28:17.064Z,100991.28
2023-05-06T15:30:43.632Z,100989.59
2023-05-06T15:33:10.293Z,100991.69
2023-05-06T15:35:36.872Z,100996.31
2023-05-06T15:38:03.882Z,100997.09
2023-05-06T15:40:31.213Z,101001.94
2023-05-06T15:42:58.282Z,101002.25
2023-05-06T15:45:24.882Z,101008.63
2023-05-06T15:47:51.743Z,101009.53
2023-05-06T15:50:31.604Z,101011.19
2023-05-06T15:52:59.022Z,101015.69
2023-05-06T15:55:26.681Z,101018.91
2023-05-06T15:57:54.858Z,101019.88
2023-05-06T16:00:22.005Z,101026.75
2023-05-06T16:02:48.759Z,101025.63
2023-05-06T16:05:16.040Z,101026.72
2023-05-06T16:07:42.657Z,101023.13
2023-05-06T16:10:09.475Z,101020.13
2023-05-06T16:12:36.347Z,101018.78
2023-05-06T16:15:03.314Z,101023.88
2023-05-06T16:17:30.349Z,101019.38
2023-05-06T16:19:56.940Z,101022.56
2023-05-06T16:22:23.566Z,101028.91
2023-05-06T16:24:50.105Z,101031.63
2023-05-06T16:27:16.715Z,101024.94
2023-05-06T16:29:43.252Z,101025.31
2023-05-06T16:32:09.844Z,101022.59
2023-05-06T16:34:38.919Z,101020.88
2023-05-06T16:37:07.906Z,101012.75
2023-05-06T16:39:34.443Z,101023.13
2023-05-06T16:42:01.891Z,101019.13
2023-05-06T16:44:29.130Z,101024.88
2023-05-06T16:46:56.131Z,101028.19
2023-05-06T16:49:22.766Z,101025.75
2023-05-06T16:51:49.397Z,101030.78
2023-05-06T16:54:15.988Z,101032.75
2023-05-06T16:56:51.376Z,101032.31
2023-05-06T16:59:21.701Z,101032.69
2023-05-06T17:01:48.966Z,101033.50
2023-05-06T17:04:16.109Z,101031.41
2023-05-06T17:06:42.722Z,101036.84
2023-05-06T17:09:09.392Z,101042.84
2023-05-06T17:11:36.005Z,101043.19
2023-05-06T17:14:03.455Z,101046.91
2023-05-06T17:16:30.850Z,101036.03
2023-05-06T17:18:57.490Z,101030.41
2023-05-06T17:21:24.987Z,101026.59
2023-05-06T17:23:54.449Z,101037.78
2023-05-06T17:26:21.357Z,101037.63
2023-05-06T17:28:48.330Z,101040.19
2023-05-06T17:31:15.653Z,101042.91
2023-05-06T17:33:44.081Z,101049.03
2023-05-06T17:36:10.844Z,101053.34
2023-05-06T17:38:37.421Z,101051.25
2023-05-06T17:41:06.336Z,101045.13
2023-05-06T17:43:34.062Z,101037.22
2023-05-06T17:46:01.236Z,101049.47
2023-05-06T17:48:27.887Z,101051.50
2023-05-06T17:50:58.271Z,101046.91
2023-05-06T17:53:24.814Z,101049.53
2023-05-06T17:55:51.381Z,101050.50
2023-05-06T17:58:21.936Z,101043.25
2023-05-06T18:00:48.530Z,101053.47
2023-05-06T18:03:15.362Z,101057.75
2023-05-06T18:05:42.100Z,101057.03
2023-05-06T18:08:09.614Z,101062.47
2023-05-06T18:10:36.291Z,101063.59
2023-05-06T18:13:03.942Z,101056.94
2023-05-06T18:15:30.749Z,101062.50
2023-05-06T18:17:57.366Z,101068.19
2023-05-06T18:20:24.026Z,101073.25
2023-05-06T18:22:50.640Z,101071.06
2023-05-06T18:25:20.316Z,101072.47
2023-05-06T18:27:47.459Z,101079.22
2023-05-06T18:30:15.047Z,101077.66
2023-05-06T18:32:41.647Z,101082.59
2023-05-06T18:35:10.811Z,101082.00
2023-05-06T18:37:37.769Z,101095.66
2023-05-06T18:40:07.170Z,101091.47
2023-05-06T18:42:34.672Z,101087.81
2023-05-06T18:45:04.631Z,101102.28
2023-05-06T18:47:32.269Z,101092.56
2023-05-06T18:50:00.676Z,101092.44
2023-05-06T18:52:27.424Z,101095.50
2023-05-06T18:54:56.304Z,101105.28
2023-05-06T18:57:24.046Z,101106.59
2023-05-06T18:59:50.987Z,101107.22
2023-05-06T19:02:17.548Z,101118.47
2023-05-06T19:04:44.179Z,101118.47
2023-05-06T19:07:11.207Z,101119.44
2023-05-06T19:09:37.843Z,101128.78
2023-05-06T19:12:04.464Z,101127.69
2023-05-06T19:14:34.793Z,101136.88
2023-05-06T19:17:02.914Z,101132.06
2023-05-06T19:19:29.575Z,101132.25
2023-05-06T19:22:01.801Z,101134.59
2023-05-06T19:24:37.598Z,101136.69
2023-05-06T19:27:04.185Z,101145.38
2023-05-06T19:29:30.743Z,101139.25
2023-05-06T19:31:57.415Z,101149.56
2023-05-06T19:34:24.511Z,101138.75
2023-05-06T19:36:51.196Z,101139.16
2023-05-06T19:39:17.813Z,101144.38
2023-05-06T19:41:44.478Z,101138.97
2023-05-06T19:44:11.078Z,101142.13
2023-05-06T19:46:37.772Z,101145.13
2023-05-06T19:49:06.643Z,101144.59
2023-05-06T19:51:33.316Z,101145.31
2023-05-06T19:54:02.629Z,101138.69
2023-05-06T19:56:29.279Z,101138.81
2023-05-06T19:58:55.850Z,101140.41
2023-05-06T20:01:23.984Z,101143.50
2023-05-06T20:03:50.767Z,101142.66
2023-05-06T20:06:17.456Z,101142.91
2023-05-06T20:08:43.960Z,101144.97
2023-05-06T20:11:11.264Z,101148.28
2023-05-06T20:13:37.826Z,101145.06
2023-05-06T20:16:04.552Z,101153.19
2023-05-06T20:18:32.032Z,101159.25
2023-05-06T20:20:58.704Z,101157.88
2023-05-06T20:23:25.477Z,101160.75
2023-05-06T20:25:52.095Z,101151.31
2023-05-06T20:28:18.787Z,101165.13
2023-05-06T20:30:45.641Z,101165.31
2023-05-06T20:33:12.415Z,101157.91
2023-05-06T20:35:40.541Z,101165.78
2023-05-06T20:38:11.608Z,101174.81
2023-05-06T20:40:40.545Z,101165.00
2023-05-06T20:43:09.483Z,101167.81
2023-05-06T20:45:39.314Z,101161.34
2023-05-06T20:48:15.280Z,101161.44
2023-05-06T20:50:42.192Z,101159.78
2023-05-06T20:53:08.764Z,101166.28
2023-05-06T20:55:37.851Z,101170.94
2023-05-06T20:58:04.458Z,101173.31
2023-05-06T21:00:31.087Z,101166.78
2023-05-06T21:02:57.778Z,101174.28
2023-05-06T21:05:24.417Z,101175.78
2023-05-06T21:07:50.973Z,101177.84
2023-05-06T21:10:24.953Z,101174.22
2023-05-06T21:12:52.684Z,101179.50
2023-05-06T21:15:19.263Z,101179.75
2023-05-06T21:17:46.400Z,101182.88
2023-05-06T21:20:13.237Z,101174.06
2023-05-06T21:22:39.883Z,101186.63
2023-05-06T21:25:06.784Z,101175.53
2023-05-06T21:27:33.419Z,101176.69
2023-05-06T21:30:02.341Z,101176.22
2023-05-06T21:32:33.024Z,101177.41
2023-05-06T21:35:03.261Z,101177.59
2023-05-06T21:37:30.127Z,101173.34
2023-05-06T21:40:02.668Z,101174.94
2023-05-06T21:42:29.995Z,101177.66
2023-05-06T21:44:56.564Z,101173.63
2023-05-06T21:47:23.179Z,101183.53
2023-05-06T21:49:49.714Z,101190.28
2023-05-06T21:52:16.453Z,101189.66
2023-05-06T21:54:47.744Z,101194.31
2023-05-06T21:57:16.673Z,101198.94
2023-05-06T21:59:43.191Z,101196.25
2023-05-06T22:02:12.180Z,101193.19
2023-05-06T22:04:38.751Z,101186.63
2023-05-06T22:07:05.656Z,101190.81
2023-05-06T22:09:32.226Z,101185.31
2023-05-06T22:11:59.457Z,101182.38
2023-05-06T22:14:30.283Z,101185.56
2023-05-06T22:17:04.896Z,101185.97
2023-05-06T22:19:31.440Z,101185.38
2023-05-06T22:21:58.467Z,101188.94
2023-05-06T22:24:34.547Z,101188.06
2023-05-06T22:27:01.805Z,101185.66
2023-05-06T22:29:35.123Z,101182.75
2023-05-06T22:32:02.555Z,101183.28
2023-05-06T22:34:29.174Z,101191.72
2023-05-06T22:36:58.098Z,101184.41
2023-05-06T22:39:25.705Z,101182.56
2023-05-06T22:41:52.405Z,101187.69
2023-05-06T22:44:21.124Z,101189.00
2023-05-06T22:46:47.820Z,101198.34
2023-05-06T22:49:15.967Z,101193.69
2023-05-06T22:51:42.753Z,101197.59
2023-05-06T22:54:11.728Z,101198.22
2023-05-06T22:56:38.426Z,101189.69
2023-05-06T22:59:05.635Z,101186.13
2023-05-06T23:01:32.760Z,101196.19
2023-05-06T23:03:59.661Z,101193.16
2023-05-06T23:06:33.213Z,101191.00
2023-05-06T23:09:05.249Z,101189.69
2023-05-06T23:11:31.921Z,101190.09
2023-05-06T23:13:58.466Z,101200.06
2023-05-06T23:16:27.407Z,101197.19
2023-05-06T23:18:54.896Z,101189.84
2023-05-06T23:21:21.621Z,101196.81
2023-05-06T23:23:54.369Z,101199.41
2023-05-06T23:26:21.289Z,101190.91
2023-05-06T23:28:50.419Z,101196.94
2023-05-06T23:31:17.149Z,101193.06
2023-05-06T23:33:43.761Z,101197.31
2023-05-06T23:36:10.631Z,101195.50
2023-05-06T23:38:37.223Z,101200.47
2023-05-06T23:41:03.842Z,101203.34
2023-05-06T23:43:30.917Z,101199.03
2023-05-06T23:45:57.576Z,101206.59
2023-05-06T23:48:24.188Z,101192.66
2023-05-06T23:50:51.362Z,101200.91
2023-05-06T23:53:17.875Z,101194.13
2023-05-06T23:55:44.502Z,101196.34
2023-05-06T23:58:17.481Z,101189.44
